Time;durP1;ratioP1;P1;durP2;ratioP2;P2;SDS_P1;SDS_P2;PMS_P1;PMS_P2;Temp;Humidity;BMP_temperature;BMP_pressure;BME280_temperature;BME280_humidity;BME280_pressure;Samples;Min_cycle;Max_cycle;Signal;HPM_P1;HPM_P2
2023/10/16 00:04:04;;;;;;;0.00;0.00;;;;;;;6.18;73.61;101479.81;15828965;28;20063;-49
2023/10/16 00:11:38;;;;;;;0.00;0.00;;;;;;;5.85;74.58;101485.84;15837714;28;20753;-49
2023/10/16 00:19:13;;;;;;;0.00;0.00;;;;;;;5.87;74.67;101491.84;15819141;28;20096;-49
2023/10/16 00:26:49;;;;;;;0.00;0.00;;;;;;;5.78;74.65;101484.81;15826180;28;20380;-49
2023/10/16 00:34:24;;;;;;;0.00;0.00;;;;;;;5.81;75.15;101487.16;15809836;28;20132;-50
2023/10/16 00:41:58;;;;;;;0.30;0.30;;;;;;;5.81;74.40;101487.16;15793792;28;20423;-50
2023/10/16 00:49:34;;;;;;;0.00;0.00;;;;;;;6.12;73.39;101483.97;15811519;28;20040;-49
2023/10/16 00:57:10;;;;;;;0.00;0.00;;;;;;;5.72;75.00;101482.78;15789925;28;20035;-50
2023/10/16 01:04:47;;;;;;;0.00;0.00;;;;;;;5.83;74.54;101471.84;15794478;28;20431;-48
2023/10/16 01:12:22;;;;;;;0.00;0.00;;;;;;;5.86;74.71;101492.00;15787985;28;20051;-47
2023/10/16 01:19:57;;;;;;;0.00;0.00;;;;;;;5.78;75.10;101490.16;15821010;28;20040;-47
2023/10/16 01:27:31;;;;;;;0.00;0.00;;;;;;;5.55;75.67;101484.56;15795776;28;20058;-50
2023/10/16 01:35:08;;;;;;;0.00;0.00;;;;;;;5.73;75.16;101472.97;15794053;28;20514;-48
2023/10/16 01:42:44;;;;;;;0.00;0.00;;;;;;;5.51;75.95;101472.56;15810509;28;20072;-48
2023/10/16 01:50:21;;;;;;;0.35;0.35;;;;;;;5.74;74.88;101475.50;15825256;28;20067;-48
2023/10/16 01:57:59;;;;;;;0.00;0.00;;;;;;;5.46;75.99;101482.84;15835621;28;20477;-49
2023/10/16 02:05:33;;;;;;;0.00;0.00;;;;;;;5.56;75.41;101488.88;15831566;28;20052;-49
2023/10/16 02:13:08;;;;;;;0.00;0.00;;;;;;;5.38;76.14;101488.13;15801777;28;20533;-48
2023/10/16 02:20:45;;;;;;;0.00;0.00;;;;;;;5.35;76.87;101485.75;15826746;28;20035;-50
2023/10/16 02:28:19;;;;;;;0.03;0.03;;;;;;;5.55;75.98;101487.22;15771633;28;20060;-49
2023/10/16 02:35:53;;;;;;;0.00;0.00;;;;;;;5.35;76.71;101489.25;15733201;28;20559;-49
2023/10/16 02:43:29;;;;;;;0.47;0.20;;;;;;;5.58;75.46;101497.53;15751481;28;20079;-51
2023/10/16 02:51:03;;;;;;;0.00;0.00;;;;;;;5.52;76.27;101502.69;15756577;28;20066;-48
2023/10/16 02:58:42;;;;;;;0.00;0.00;;;;;;;5.24;76.98;101494.84;15742495;28;20449;-47
2023/10/16 03:06:16;;;;;;;0.00;0.00;;;;;;;5.35;76.85;101496.41;15736527;28;20067;-48
2023/10/16 03:13:51;;;;;;;0.00;0.00;;;;;;;5.33;76.43;101495.75;15733607;28;20511;-48
2023/10/16 03:21:27;;;;;;;3.97;1.60;;;;;;;4.96;77.92;101504.81;15767606;28;20041;-50
2023/10/16 03:29:04;;;;;;;0.00;0.00;;;;;;;5.06;76.87;101478.09;15759352;28;20047;-47
2023/10/16 03:36:39;;;;;;;0.00;0.00;;;;;;;5.17;77.45;101501.78;15764503;28;20376;-48
2023/10/16 03:44:17;;;;;;;0.00;0.00;;;;;;;5.65;74.80;101499.59;15725480;28;20464;-48
2023/10/16 03:51:50;;;;;;;0.00;0.00;;;;;;;5.61;74.67;101507.88;15764262;28;20059;-48
2023/10/16 03:59:29;;;;;;;0.00;0.00;;;;;;;5.69;74.69;101507.09;15742314;28;20051;-48
2023/10/16 04:07:04;;;;;;;0.00;0.00;;;;;;;5.15;75.41;101500.28;15751995;28;20471;-47
2023/10/16 04:14:49;;;;;;;0.30;0.22;;;;;;;5.37;75.49;101489.13;15712584;28;20040;-48
2023/10/16 04:22:24;;;;;;;0.00;0.00;;;;;;;5.28;76.33;101495.38;15765244;28;20448;-47
2023/10/16 04:37:54;;;;;;;0.10;0.10;;;;;;;5.16;76.02;101505.44;15731241;28;20179;-47
2023/10/16 04:45:39;;;;;;;0.00;0.00;;;;;;;5.42;75.67;101499.28;15796394;22;20422;-52
2023/10/16 04:53:13;;;;;;;0.00;0.00;;;;;;;5.08;75.12;101500.06;15793023;28;20055;-51
2023/10/16 05:00:56;;;;;;;0.00;0.00;;;;;;;4.84;76.25;101493.56;15760736;28;20051;-52
2023/10/16 05:08:38;;;;;;;0.00;0.00;;;;;;;5.19;75.26;101506.97;15763346;28;20048;-53
2023/10/16 05:16:33;;;;;;;0.00;0.00;;;;;;;4.73;76.33;101495.66;15751163;28;20032;-54
2023/10/16 06:19:25;;;;;;;0.00;0.00;;;;;;;5.03;77.60;101544.91;15755394;28;20044;-53
2023/10/16 06:27:00;;;;;;;0.08;0.08;;;;;;;5.02;77.72;101544.09;15788830;28;20048;-52
2023/10/16 06:34:37;;;;;;;0.00;0.00;;;;;;;5.55;76.23;101535.16;15777248;28;20453;-52
2023/10/16 06:42:17;;;;;;;0.00;0.00;;;;;;;5.37;78.06;101551.19;15771180;28;20047;-54
2023/10/16 06:49:54;;;;;;;0.05;0.05;;;;;;;5.24;78.16;101524.13;15777751;28;20040;-51
2023/10/16 06:57:28;;;;;;;0.00;0.00;;;;;;;6.52;75.30;101555.19;15766755;28;20032;-52
2023/10/16 07:05:05;;;;;;;0.20;0.20;;;;;;;7.28;72.83;101548.75;15727950;28;20044;-53
2023/10/16 07:12:56;;;;;;;0.00;0.00;;;;;;;7.49;71.72;101555.38;15763576;28;20070;-53
2023/10/16 07:20:52;;;;;;;0.00;0.00;;;;;;;7.22;71.25;101525.38;15744040;28;20402;-54
2023/10/16 07:28:27;;;;;;;0.05;0.05;;;;;;;6.99;72.53;101554.56;15761013;28;20064;-53
2023/10/16 07:36:10;;;;;;;0.00;0.00;;;;;;;6.66;74.62;101556.38;15778038;28;20105;-52
2023/10/16 07:43:46;;;;;;;0.20;0.15;;;;;;;7.46;71.75;101558.38;15759772;28;20075;-52
2023/10/16 07:51:25;;;;;;;0.00;0.00;;;;;;;7.99;69.60;101563.09;15767884;28;20044;-52
2023/10/16 07:59:07;;;;;;;0.30;0.28;;;;;;;8.14;69.43;101566.69;15769038;28;20106;-54
2023/10/16 08:06:42;;;;;;;0.00;0.00;;;;;;;7.96;70.39;101566.09;15764564;28;20513;-54
2023/10/16 08:14:15;;;;;;;0.00;0.00;;;;;;;8.59;68.13;101567.00;15743858;28;20040;-53
2023/10/16 08:21:54;;;;;;;0.00;0.00;;;;;;;8.53;68.13;101579.22;15769007;28;20481;-55
2023/10/16 08:29:34;;;;;;;0.00;0.00;;;;;;;8.16;68.89;101585.25;15770466;28;20040;-54
2023/10/16 08:37:11;;;;;;;0.00;0.00;;;;;;;9.02;67.68;101580.75;15778728;28;20044;-52
2023/10/16 08:44:46;;;;;;;0.00;0.00;;;;;;;10.07;65.01;101589.59;15766522;28;20048;-52
2023/10/16 08:52:22;;;;;;;0.25;0.25;;;;;;;10.29;62.56;101542.22;15760383;28;20044;-53
2023/10/16 08:59:57;;;;;;;0.63;0.32;;;;;;;10.93;60.96;101574.50;15770716;28;20059;-54
2023/10/16 09:07:34;;;;;;;0.00;0.00;;;;;;;10.73;62.10;101577.00;15761872;28;20511;-53
2023/10/16 09:15:10;;;;;;;0.10;0.10;;;;;;;10.67;62.87;101585.78;15799888;28;20521;-52
2023/10/16 09:22:51;;;;;;;0.13;0.13;;;;;;;11.11;61.06;101590.19;15764710;28;20060;-56
2023/10/16 09:30:27;;;;;;;0.00;0.00;;;;;;;10.85;61.96;101592.59;15765280;28;20403;-53
2023/10/16 09:38:17;;;;;;;0.00;0.00;;;;;;;11.38;61.70;101585.03;15773117;28;20420;-54
2023/10/16 09:46:15;;;;;;;0.17;0.17;;;;;;;10.70;61.81;101595.34;15763904;28;20459;-50
2023/10/16 09:53:46;;;;;;;0.00;0.00;;;;;;;11.38;60.77;101601.16;15779792;28;20051;-51
2023/10/16 10:01:29;;;;;;;0.08;0.05;;;;;;;11.71;58.76;101591.47;15789823;28;20464;-51
2023/10/16 10:09:31;;;;;;;0.00;0.00;;;;;;;12.41;56.82;101591.47;15774036;28;20040;-51
2023/10/16 10:17:05;;;;;;;0.00;0.00;;;;;;;12.46;57.24;101587.13;15775688;28;20040;-52
2023/10/16 10:24:48;;;;;;;0.03;0.03;;;;;;;12.82;54.51;101587.84;15792252;28;20310;-51
2023/10/16 10:32:23;;;;;;;0.20;0.05;;;;;;;12.86;56.06;101597.16;15769252;28;20037;-51
2023/10/16 10:40:15;;;;;;;;;;;;;;;12.04;56.00;101604.34;15772647;28;20041;-52
2023/10/16 10:47:54;;;;;;;0.00;0.00;;;;;;;12.72;55.99;101597.13;15788098;22;19921;-51
2023/10/16 10:55:29;;;;;;;0.00;0.00;;;;;;;13.19;55.47;101594.50;15751853;28;20089;-49
2023/10/16 11:03:08;;;;;;;0.17;0.17;;;;;;;13.88;52.22;101588.69;15740973;28;20444;-52
2023/10/16 11:10:46;;;;;;;0.10;0.10;;;;;;;14.98;50.12;101588.63;15756395;28;20043;-49
2023/10/16 11:18:20;;;;;;;0.00;0.00;;;;;;;12.94;53.51;101584.34;15783137;28;20047;-52
2023/10/16 11:25:55;;;;;;;0.00;0.00;;;;;;;12.71;52.87;101584.72;15795427;28;20044;-54
2023/10/16 11:33:34;;;;;;;5.30;0.17;;;;;;;12.95;53.19;101571.69;15790606;28;20032;-53
2023/10/16 11:41:16;;;;;;;0.03;0.03;;;;;;;14.04;49.99;101577.44;15792020;28;20067;-47
2023/10/16 11:48:49;;;;;;;0.00;0.00;;;;;;;13.24;52.70;101582.13;15788847;28;20040;-49
2023/10/16 11:56:25;;;;;;;0.00;0.00;;;;;;;12.92;54.46;101578.34;15783880;28;20040;-49
2023/10/16 12:03:58;;;;;;;0.00;0.00;;;;;;;11.60;55.63;101567.81;15782384;28;20036;-51
2023/10/16 12:11:42;;;;;;;0.00;0.00;;;;;;;12.66;54.88;101565.63;15750007;28;20044;-52
2023/10/16 12:19:17;;;;;;;0.63;0.20;;;;;;;12.12;54.14;101536.03;15760096;28;20463;-52
2023/10/16 12:26:52;;;;;;;0.20;0.10;;;;;;;12.11;54.53;101559.44;15744799;28;20079;-52
2023/10/16 12:34:25;;;;;;;0.00;0.00;;;;;;;13.59;49.52;101551.41;15744698;28;20381;-55
2023/10/16 12:42:01;;;;;;;0.22;0.08;;;;;;;14.02;47.55;101555.22;15733085;28;20036;-54
2023/10/16 12:49:36;;;;;;;0.10;0.10;;;;;;;12.34;53.13;101559.13;15747261;28;20180;-50
2023/10/16 12:57:10;;;;;;;;;;;;;;;11.55;57.21;101566.75;15738636;28;20094;-49
2023/10/16 13:04:43;;;;;;;0.00;0.00;;;;;;;11.68;56.57;101566.84;15765247;28;19920;-50
2023/10/16 13:12:18;;;;;;;0.40;0.38;;;;;;;10.89;59.87;101569.72;15721425;28;20040;-50
2023/10/16 13:19:51;;;;;;;0.00;0.00;;;;;;;10.97;58.51;101567.72;15717429;28;20600;-52
2023/10/16 13:27:27;;;;;;;0.00;0.00;;;;;;;11.15;59.42;101575.34;15700939;28;20040;-51
2023/10/16 13:35:03;;;;;;;7.70;0.22;;;;;;;11.69;57.05;101569.31;15750457;28;20505;-51
2023/10/16 13:42:37;;;;;;;0.00;0.00;;;;;;;11.48;59.41;101574.78;15787441;28;20090;-52
2023/10/16 13:50:14;;;;;;;4.30;0.38;;;;;;;11.63;58.30;101570.13;15785891;28;20036;-53
2023/10/16 13:57:54;;;;;;;0.10;0.10;;;;;;;11.33;59.02;101571.31;15769952;28;20041;-53
2023/10/16 14:05:28;;;;;;;0.00;0.00;;;;;;;11.23;57.60;101577.88;15793550;28;20040;-53
2023/10/16 14:13:10;;;;;;;0.00;0.00;;;;;;;11.03;57.02;101576.88;15761476;28;20465;-50
2023/10/16 14:20:46;;;;;;;0.00;0.00;;;;;;;11.18;56.75;101577.63;15780453;28;20044;-50
2023/10/16 14:28:27;;;;;;;0.00;0.00;;;;;;;11.40;56.37;101578.44;15788606;28;20119;-54
2023/10/16 14:36:03;;;;;;;0.08;0.08;;;;;;;11.35;56.14;101571.97;15779163;28;20052;-50
2023/10/16 14:43:38;;;;;;;0.00;0.00;;;;;;;10.80;57.74;101574.38;15772858;28;20449;-49
2023/10/16 14:51:12;;;;;;;0.00;0.00;;;;;;;11.30;57.02;101539.47;15799327;28;20032;-53
2023/10/16 14:58:49;;;;;;;1.08;0.73;;;;;;;11.65;56.75;101572.59;15798485;28;20063;-50
2023/10/16 15:06:22;;;;;;;0.00;0.00;;;;;;;11.57;57.48;101570.91;15790257;28;20150;-52
2023/10/16 15:14:00;;;;;;;0.00;0.00;;;;;;;11.49;56.52;101574.56;15793224;28;20542;-48
2023/10/16 15:21:36;;;;;;;0.00;0.00;;;;;;;10.77;58.41;101581.97;15780988;28;20038;-53
2023/10/16 15:29:13;;;;;;;0.00;0.00;;;;;;;11.27;58.75;101581.00;15738042;28;20099;-53
2023/10/16 15:36:49;;;;;;;0.00;0.00;;;;;;;10.83;60.13;101568.63;15763320;28;20063;-53
2023/10/16 15:44:24;;;;;;;0.00;0.00;;;;;;;10.98;59.61;101580.13;15792728;28;20101;-53
2023/10/16 15:51:58;;;;;;;0.00;0.00;;;;;;;10.47;60.43;101582.91;15781894;28;20050;-50
2023/10/16 15:59:32;;;;;;;0.63;0.32;;;;;;;10.41;61.09;101589.03;15752738;28;20444;-50
2023/10/16 16:07:08;;;;;;;0.10;0.10;;;;;;;10.54;60.40;101591.03;15778227;28;20040;-48
2023/10/16 16:14:43;;;;;;;0.00;0.00;;;;;;;10.53;61.04;101605.47;15762722;28;20127;-53
2023/10/16 16:22:16;;;;;;;0.00;0.00;;;;;;;10.37;61.52;101576.19;15760569;28;20052;-51
2023/10/16 16:29:52;;;;;;;0.10;0.10;;;;;;;10.53;61.79;101615.38;15748832;28;20043;-49
2023/10/16 16:37:26;;;;;;;0.00;0.00;;;;;;;10.55;61.96;101622.22;15720026;28;20048;-49
2023/10/16 16:45:01;;;;;;;0.03;0.03;;;;;;;10.49;63.18;101631.00;15721772;28;20048;-52
2023/10/16 16:52:34;;;;;;;1.63;0.85;;;;;;;10.53;62.58;101635.00;15722315;28;20044;-49
2023/10/16 17:00:10;;;;;;;0.77;0.57;;;;;;;10.77;62.29;101631.16;15727054;28;20099;-53
2023/10/16 17:07:45;;;;;;;0.30;0.30;;;;;;;10.51;63.24;101639.72;15727144;28;20555;-51
2023/10/16 17:15:20;;;;;;;0.35;0.35;;;;;;;10.38;62.30;101651.13;15729710;28;20144;-51
2023/10/16 17:22:53;;;;;;;0.43;0.43;;;;;;;10.27;62.73;101651.59;15725581;28;20055;-49
2023/10/16 17:30:30;;;;;;;0.05;0.05;;;;;;;9.99;64.72;101656.75;15791526;28;20504;-51
2023/10/16 17:38:09;;;;;;;0.08;0.08;;;;;;;9.75;65.24;101659.69;15800615;28;20203;-51
2023/10/16 17:45:43;;;;;;;0.57;0.25;;;;;;;9.46;65.46;101661.25;15789408;28;20409;-48
2023/10/16 17:53:17;;;;;;;0.13;0.13;;;;;;;9.25;66.51;101663.78;15767232;28;20048;-49
2023/10/16 18:00:56;;;;;;;1.40;0.82;;;;;;;9.02;65.94;101651.22;15782945;28;20064;-53
2023/10/16 18:08:29;;;;;;;0.10;0.10;;;;;;;8.84;67.00;101675.56;15769150;28;20133;-50
2023/10/16 18:16:06;;;;;;;1.40;0.98;;;;;;;8.76;67.14;101672.94;15797009;28;20285;-50
2023/10/16 18:23:40;;;;;;;0.10;0.10;;;;;;;8.79;67.43;101666.41;15787731;28;20044;-49
2023/10/16 18:31:17;;;;;;;0.63;0.63;;;;;;;8.76;66.78;101667.59;15784240;22;20043;-48
2023/10/16 18:38:50;;;;;;;3.53;1.27;;;;;;;8.90;66.08;101684.75;15865235;28;20055;-51
2023/10/16 18:46:25;;;;;;;2.03;0.45;;;;;;;8.40;67.14;101691.34;15854047;28;20139;-48
2023/10/16 18:53:59;;;;;;;0.03;0.03;;;;;;;8.25;68.02;101698.38;15864663;28;20036;-49
2023/10/16 19:01:34;;;;;;;0.32;0.32;;;;;;;8.17;67.70;101697.41;15859015;28;20103;-51
2023/10/16 19:09:10;;;;;;;1.88;0.93;;;;;;;8.01;68.27;101705.44;15844789;28;20048;-53
2023/10/16 19:16:44;;;;;;;0.22;0.22;;;;;;;8.01;69.10;101701.94;15807663;28;20158;-52
2023/10/16 19:24:18;;;;;;;0.00;0.00;;;;;;;7.98;68.89;101692.44;15812185;28;20228;-51
2023/10/16 19:31:53;;;;;;;0.28;0.20;;;;;;;8.21;68.45;101703.25;15801492;28;20389;-52
2023/10/16 19:39:26;;;;;;;0.10;0.10;;;;;;;8.18;69.57;101708.91;15803945;28;20032;-49
2023/10/16 19:47:01;;;;;;;0.00;0.00;;;;;;;7.97;70.22;101711.28;15790392;28;20127;-53
2023/10/16 19:54:38;;;;;;;0.35;0.35;;;;;;;7.99;70.49;101714.66;15780347;28;20118;-53
2023/10/16 20:02:13;;;;;;;0.08;0.08;;;;;;;8.10;70.65;101717.78;15814313;28;20096;-52
2023/10/16 20:09:47;;;;;;;0.00;0.00;;;;;;;7.85;70.75;101724.19;15812355;28;20052;-51
2023/10/16 20:17:22;;;;;;;0.00;0.00;;;;;;;7.54;72.15;101724.84;15855882;28;20422;-49
2023/10/16 20:24:57;;;;;;;0.32;0.22;;;;;;;8.25;70.67;101723.25;15855883;28;20055;-50
2023/10/16 20:32:32;;;;;;;0.00;0.00;;;;;;;8.09;71.23;101732.16;15847917;28;20043;-50
2023/10/16 20:40:08;;;;;;;0.25;0.25;;;;;;;8.25;70.66;101733.13;15830126;28;20072;-49
2023/10/16 20:47:43;;;;;;;0.00;0.00;;;;;;;8.40;69.74;101731.47;15827996;28;20206;-50
2023/10/16 20:55:18;;;;;;;0.00;0.00;;;;;;;8.34;70.28;101721.41;15829788;28;20058;-51
2023/10/16 21:02:54;;;;;;;0.22;0.22;;;;;;;8.12;70.78;101723.81;15829517;28;20036;-54
2023/10/16 21:10:31;;;;;;;0.00;0.00;;;;;;;8.18;70.45;101730.31;15857608;28;20040;-53
2023/10/16 21:18:06;;;;;;;0.75;0.75;;;;;;;8.37;69.67;101732.63;15856688;28;20130;-52
2023/10/16 21:25:39;;;;;;;0.00;0.00;;;;;;;8.31;68.57;101730.63;15856933;28;20043;-49
2023/10/16 21:33:14;;;;;;;0.32;0.32;;;;;;;8.03;69.73;101730.19;15850419;28;20044;-51
2023/10/16 21:40:47;;;;;;;0.00;0.00;;;;;;;7.97;70.06;101722.81;15851048;28;20085;-52
2023/10/16 21:48:22;;;;;;;2.20;0.80;;;;;;;7.76;69.74;101728.69;15844105;28;20504;-51
2023/10/16 21:55:56;;;;;;;0.00;0.00;;;;;;;7.77;69.91;101727.69;15848226;28;20052;-50
2023/10/16 22:03:31;;;;;;;0.00;0.00;;;;;;;7.61;70.36;101736.53;15816181;28;20082;-55
2023/10/16 22:11:04;;;;;;;0.08;0.08;;;;;;;7.30;70.18;101736.31;15864369;28;20051;-51
2023/10/16 22:18:40;;;;;;;0.17;0.17;;;;;;;7.12;70.52;101740.97;15848528;28;20077;-53
2023/10/16 22:26:16;;;;;;;0.25;0.25;;;;;;;7.10;69.88;101738.47;15867337;28;20047;-50
2023/10/16 22:33:51;;;;;;;0.00;0.00;;;;;;;7.05;69.94;101746.13;15859739;28;20079;-52
2023/10/16 22:41:24;;;;;;;0.63;0.55;;;;;;;6.87;70.43;101745.41;15841804;28;20034;-49
2023/10/16 22:49:00;;;;;;;0.00;0.00;;;;;;;6.81;69.84;101741.53;15852686;28;20089;-50
2023/10/16 22:56:33;;;;;;;1.20;0.75;;;;;;;6.59;70.15;101745.59;15838039;28;20152;-51
2023/10/16 23:21:55;;;;;;;0.00;0.00;;;;;;;6.16;69.55;101741.22;15755566;28;20556;-54
2023/10/16 23:29:28;;;;;;;0.10;0.10;;;;;;;6.42;69.88;101741.19;15849705;27;20027;-50
2023/10/16 23:37:04;;;;;;;0.00;0.00;;;;;;;6.05;70.42;101742.28;15862362;28;20109;-53
2023/10/16 23:44:40;;;;;;;0.00;0.00;;;;;;;5.91;70.98;101744.63;15849641;28;20035;-48
2023/10/16 23:52:22;;;;;;;0.10;0.10;;;;;;;5.83;70.58;101742.78;15860934;28;20047;-49
